Ibra, Oman
Current Conditions -  °F | °C
As of 12:50 PM on Thursday 23 Oct 2014 (Local Time) from OOMS Reporting Station
Clear Clear  
Wind Chill: 33°   Ceiling: Unl
Heat Index: 39°   Visibility: 6mi
Dew Point: 24°   Wind: 10mph
Humidity: 59%   Direction: 350°N
Pressure: 29.91"   Gusts: NA
Location:  22.72°N, 58.53°E
Report Text: OOMS 230850Z 35009KT 320V030 CAVOK 33/24 Q1013 NOSIG
Loading
Personal Weather Stations






























Interactive Weather Map
Tropical Storm Tracking
New forecast layout! Learn more

10-Day Weather Forecast

Advertisements
Track Severe Weather on mobile